sensor_id;sensor_type;location;lat;lon;timestamp;temperature;humidity
10282;DHT22;5186;59.472;18.048;2023-01-29T00:01:13;1.40;99.90
10282;DHT22;5186;59.472;18.048;2023-01-29T00:03:39;1.40;99.90
10282;DHT22;5186;59.472;18.048;2023-01-29T00:06:06;1.40;99.90
10282;DHT22;5186;59.472;18.048;2023-01-29T00:08:34;1.50;99.90
10282;DHT22;5186;59.472;18.048;2023-01-29T00:11:01;1.50;99.90
10282;DHT22;5186;59.472;18.048;2023-01-29T00:13:27;1.50;99.90
10282;DHT22;5186;59.472;18.048;2023-01-29T00:15:57;1.60;99.90
10282;DHT22;5186;59.472;18.048;2023-01-29T00:18:23;1.60;99.90
10282;DHT22;5186;59.472;18.048;2023-01-29T00:20:49;1.60;99.90
10282;DHT22;5186;59.472;18.048;2023-01-29T00:23:15;1.60;99.90
10282;DHT22;5186;59.472;18.048;2023-01-29T00:25:41;1.70;99.90
10282;DHT22;5186;59.472;18.048;2023-01-29T00:28:07;1.70;99.90
10282;DHT22;5186;59.472;18.048;2023-01-29T00:30:34;1.70;99.90
10282;DHT22;5186;59.472;18.048;2023-01-29T00:32:59;1.70;99.90
10282;DHT22;5186;59.472;18.048;2023-01-29T00:35:25;1.70;99.90
10282;DHT22;5186;59.472;18.048;2023-01-29T00:37:50;1.70;99.90
10282;DHT22;5186;59.472;18.048;2023-01-29T00:40:16;1.70;99.90
10282;DHT22;5186;59.472;18.048;2023-01-29T00:42:43;1.70;99.90
10282;DHT22;5186;59.472;18.048;2023-01-29T00:45:28;1.80;99.90
10282;DHT22;5186;59.472;18.048;2023-01-29T00:47:53;1.70;99.90
10282;DHT22;5186;59.472;18.048;2023-01-29T00:50:19;1.70;99.90
10282;DHT22;5186;59.472;18.048;2023-01-29T00:52:44;1.70;99.90
10282;DHT22;5186;59.472;18.048;2023-01-29T00:55:10;1.70;99.90
10282;DHT22;5186;59.472;18.048;2023-01-29T00:57:36;1.70;99.90
10282;DHT22;5186;59.472;18.048;2023-01-29T01:00:08;1.80;99.90
10282;DHT22;5186;59.472;18.048;2023-01-29T01:02:34;1.80;99.90
10282;DHT22;5186;59.472;18.048;2023-01-29T01:05:19;1.80;99.90
10282;DHT22;5186;59.472;18.048;2023-01-29T01:07:46;1.80;99.90
10282;DHT22;5186;59.472;18.048;2023-01-29T01:10:15;1.80;99.90
10282;DHT22;5186;59.472;18.048;2023-01-29T01:12:54;1.80;99.90
10282;DHT22;5186;59.472;18.048;2023-01-29T01:15:22;1.90;99.90
10282;DHT22;5186;59.472;18.048;2023-01-29T01:17:51;1.90;99.90
10282;DHT22;5186;59.472;18.048;2023-01-29T01:20:17;1.90;99.90
10282;DHT22;5186;59.472;18.048;2023-01-29T01:22:44;1.90;99.90
10282;DHT22;5186;59.472;18.048;2023-01-29T01:25:09;1.90;99.90
10282;DHT22;5186;59.472;18.048;2023-01-29T01:27:35;2.00;99.90
10282;DHT22;5186;59.472;18.048;2023-01-29T01:30:07;1.90;99.90
10282;DHT22;5186;59.472;18.048;2023-01-29T01:32:32;1.90;99.90
10282;DHT22;5186;59.472;18.048;2023-01-29T01:34:58;2.00;99.90
10282;DHT22;5186;59.472;18.048;2023-01-29T01:37:23;2.00;99.90
10282;DHT22;5186;59.472;18.048;2023-01-29T01:39:49;2.00;99.90
10282;DHT22;5186;59.472;18.048;2023-01-29T01:42:15;2.00;99.90
10282;DHT22;5186;59.472;18.048;2023-01-29T01:45:17;2.00;99.90
10282;DHT22;5186;59.472;18.048;2023-01-29T01:47:47;2.00;99.90
10282;DHT22;5186;59.472;18.048;2023-01-29T01:50:16;1.90;99.90
10282;DHT22;5186;59.472;18.048;2023-01-29T01:52:49;1.90;99.90
10282;DHT22;5186;59.472;18.048;2023-01-29T01:55:18;1.80;99.90
10282;DHT22;5186;59.472;18.048;2023-01-29T01:57:47;1.80;99.90
10282;DHT22;5186;59.472;18.048;2023-01-29T02:02:52;1.70;99.90
10282;DHT22;5186;59.472;18.048;2023-01-29T02:05:38;1.60;99.90
10282;DHT22;5186;59.472;18.048;2023-01-29T02:08:31;1.60;99.90
10282;DHT22;5186;59.472;18.048;2023-01-29T02:11:17;1.60;99.90
10282;DHT22;5186;59.472;18.048;2023-01-29T02:13:43;1.60;99.90
10282;DHT22;5186;59.472;18.048;2023-01-29T02:16:09;1.50;99.90
10282;DHT22;5186;59.472;18.048;2023-01-29T02:18:35;1.60;99.90
10282;DHT22;5186;59.472;18.048;2023-01-29T02:26:28;1.50;99.90
10282;DHT22;5186;59.472;18.048;2023-01-29T02:29:10;1.50;99.90
10282;DHT22;5186;59.472;18.048;2023-01-29T02:32:15;1.50;99.90
10282;DHT22;5186;59.472;18.048;2023-01-29T02:46:13;1.40;99.90
10282;DHT22;5186;59.472;18.048;2023-01-29T02:49:26;1.40;99.90
10282;DHT22;5186;59.472;18.048;2023-01-29T02:54:40;1.30;99.90
10282;DHT22;5186;59.472;18.048;2023-01-29T02:57:20;1.30;99.90
10282;DHT22;5186;59.472;18.048;2023-01-29T02:59:52;1.30;99.90
10282;DHT22;5186;59.472;18.048;2023-01-29T03:02:30;1.20;99.90
10282;DHT22;5186;59.472;18.048;2023-01-29T03:05:00;1.20;99.90
10282;DHT22;5186;59.472;18.048;2023-01-29T03:07:32;1.20;99.90
10282;DHT22;5186;59.472;18.048;2023-01-29T03:12:38;1.10;99.90
10282;DHT22;5186;59.472;18.048;2023-01-29T03:15:15;1.10;99.90
10282;DHT22;5186;59.472;18.048;2023-01-29T03:18:11;1.00;99.90
10282;DHT22;5186;59.472;18.048;2023-01-29T03:20:45;1.00;99.90
10282;DHT22;5186;59.472;18.048;2023-01-29T03:23:21;1.00;99.90
10282;DHT22;5186;59.472;18.048;2023-01-29T03:25:53;0.90;99.90
10282;DHT22;5186;59.472;18.048;2023-01-29T03:28:43;0.90;99.90
10282;DHT22;5186;59.472;18.048;2023-01-29T03:31:30;0.80;99.90
10282;DHT22;5186;59.472;18.048;2023-01-29T03:34:17;0.80;99.90
10282;DHT22;5186;59.472;18.048;2023-01-29T03:36:57;0.80;99.90
10282;DHT22;5186;59.472;18.048;2023-01-29T03:39:27;0.70;99.90
10282;DHT22;5186;59.472;18.048;2023-01-29T03:53:17;0.70;99.90
10282;DHT22;5186;59.472;18.048;2023-01-29T03:55:52;0.70;99.90
10282;DHT22;5186;59.472;18.048;2023-01-29T03:59:08;0.70;99.90
10282;DHT22;5186;59.472;18.048;2023-01-29T04:01:32;0.70;99.90
10282;DHT22;5186;59.472;18.048;2023-01-29T04:04:08;0.70;99.90
10282;DHT22;5186;59.472;18.048;2023-01-29T04:06:37;0.70;99.90
10282;DHT22;5186;59.472;18.048;2023-01-29T04:09:10;0.60;99.90
10282;DHT22;5186;59.472;18.048;2023-01-29T04:11:41;0.60;99.90
10282;DHT22;5186;59.472;18.048;2023-01-29T04:14:10;0.60;99.90
10282;DHT22;5186;59.472;18.048;2023-01-29T04:16:39;0.60;99.90
10282;DHT22;5186;59.472;18.048;2023-01-29T04:19:06;0.60;99.90
10282;DHT22;5186;59.472;18.048;2023-01-29T04:21:33;0.70;99.90
10282;DHT22;5186;59.472;18.048;2023-01-29T04:24:02;0.70;99.90
10282;DHT22;5186;59.472;18.048;2023-01-29T04:26:41;0.70;99.90
10282;DHT22;5186;59.472;18.048;2023-01-29T04:32:47;0.80;99.90
10282;DHT22;5186;59.472;18.048;2023-01-29T04:35:25;0.90;99.90
10282;DHT22;5186;59.472;18.048;2023-01-29T04:38:14;1.00;99.90
10282;DHT22;5186;59.472;18.048;2023-01-29T04:40:50;1.00;99.90
10282;DHT22;5186;59.472;18.048;2023-01-29T04:51:18;1.30;99.90
10282;DHT22;5186;59.472;18.048;2023-01-29T04:53:56;1.30;99.90
10282;DHT22;5186;59.472;18.048;2023-01-29T04:56:47;1.40;99.90
10282;DHT22;5186;59.472;18.048;2023-01-29T04:59:21;1.40;99.90
10282;DHT22;5186;59.472;18.048;2023-01-29T05:01:49;1.40;99.90
10282;DHT22;5186;59.472;18.048;2023-01-29T05:04:17;1.40;99.90
10282;DHT22;5186;59.472;18.048;2023-01-29T05:06:44;1.50;99.90
10282;DHT22;5186;59.472;18.048;2023-01-29T05:09:15;1.50;99.90
10282;DHT22;5186;59.472;18.048;2023-01-29T05:11:41;1.50;99.90
10282;DHT22;5186;59.472;18.048;2023-01-29T05:14:08;1.60;99.90
10282;DHT22;5186;59.472;18.048;2023-01-29T05:16:46;1.60;99.90
10282;DHT22;5186;59.472;18.048;2023-01-29T05:19:13;1.60;99.90
10282;DHT22;5186;59.472;18.048;2023-01-29T05:21:42;1.70;99.90
10282;DHT22;5186;59.472;18.048;2023-01-29T05:24:14;1.70;99.90
10282;DHT22;5186;59.472;18.048;2023-01-29T05:26:42;1.70;99.90
10282;DHT22;5186;59.472;18.048;2023-01-29T05:29:26;1.70;99.90
10282;DHT22;5186;59.472;18.048;2023-01-29T05:31:52;1.70;99.90
10282;DHT22;5186;59.472;18.048;2023-01-29T05:34:17;1.70;99.90
10282;DHT22;5186;59.472;18.048;2023-01-29T05:36:43;1.70;99.90
10282;DHT22;5186;59.472;18.048;2023-01-29T05:39:08;1.70;99.90
10282;DHT22;5186;59.472;18.048;2023-01-29T05:41:34;1.80;99.90
10282;DHT22;5186;59.472;18.048;2023-01-29T05:43:59;1.80;99.90
10282;DHT22;5186;59.472;18.048;2023-01-29T05:46:25;1.80;99.90
10282;DHT22;5186;59.472;18.048;2023-01-29T05:48:54;1.80;99.90
10282;DHT22;5186;59.472;18.048;2023-01-29T05:51:20;1.80;99.90
10282;DHT22;5186;59.472;18.048;2023-01-29T05:53:45;1.80;99.90
10282;DHT22;5186;59.472;18.048;2023-01-29T05:56:11;1.80;99.90
10282;DHT22;5186;59.472;18.048;2023-01-29T05:58:37;1.80;99.90
10282;DHT22;5186;59.472;18.048;2023-01-29T06:01:13;1.80;99.90
10282;DHT22;5186;59.472;18.048;2023-01-29T06:03:39;1.80;99.90
10282;DHT22;5186;59.472;18.048;2023-01-29T06:06:05;1.80;99.90
10282;DHT22;5186;59.472;18.048;2023-01-29T06:08:31;1.80;99.90
10282;DHT22;5186;59.472;18.048;2023-01-29T06:10:56;1.80;99.90
10282;DHT22;5186;59.472;18.048;2023-01-29T06:13:22;1.80;99.90
10282;DHT22;5186;59.472;18.048;2023-01-29T06:15:47;1.90;99.90
10282;DHT22;5186;59.472;18.048;2023-01-29T06:18:13;1.90;99.90
10282;DHT22;5186;59.472;18.048;2023-01-29T06:20:38;1.90;99.90
10282;DHT22;5186;59.472;18.048;2023-01-29T06:23:04;1.90;99.90
10282;DHT22;5186;59.472;18.048;2023-01-29T06:25:30;1.90;99.90
10282;DHT22;5186;59.472;18.048;2023-01-29T06:27:56;1.90;99.90
10282;DHT22;5186;59.472;18.048;2023-01-29T06:30:21;1.90;99.90
10282;DHT22;5186;59.472;18.048;2023-01-29T06:32:47;1.90;99.90
10282;DHT22;5186;59.472;18.048;2023-01-29T06:35:13;1.80;99.90
10282;DHT22;5186;59.472;18.048;2023-01-29T06:37:38;1.80;99.90
10282;DHT22;5186;59.472;18.048;2023-01-29T06:40:04;1.80;99.90
10282;DHT22;5186;59.472;18.048;2023-01-29T06:42:30;1.80;99.90
10282;DHT22;5186;59.472;18.048;2023-01-29T06:44:56;1.80;99.90
10282;DHT22;5186;59.472;18.048;2023-01-29T06:47:23;1.80;99.90
10282;DHT22;5186;59.472;18.048;2023-01-29T06:49:49;1.90;99.90
10282;DHT22;5186;59.472;18.048;2023-01-29T06:52:15;1.80;99.90
10282;DHT22;5186;59.472;18.048;2023-01-29T06:54:40;1.80;99.90
10282;DHT22;5186;59.472;18.048;2023-01-29T06:57:06;1.80;99.90
10282;DHT22;5186;59.472;18.048;2023-01-29T06:59:31;1.90;99.90
10282;DHT22;5186;59.472;18.048;2023-01-29T07:01:57;1.90;99.90
10282;DHT22;5186;59.472;18.048;2023-01-29T07:04:23;1.80;99.90
10282;DHT22;5186;59.472;18.048;2023-01-29T07:06:48;1.80;99.90
10282;DHT22;5186;59.472;18.048;2023-01-29T07:09:14;1.80;99.90
10282;DHT22;5186;59.472;18.048;2023-01-29T07:11:39;1.90;99.90
10282;DHT22;5186;59.472;18.048;2023-01-29T07:14:05;1.90;99.90
10282;DHT22;5186;59.472;18.048;2023-01-29T07:16:31;1.80;99.90
10282;DHT22;5186;59.472;18.048;2023-01-29T07:18:57;1.80;99.90
10282;DHT22;5186;59.472;18.048;2023-01-29T07:21:23;1.80;99.90
10282;DHT22;5186;59.472;18.048;2023-01-29T07:23:48;1.80;99.90
10282;DHT22;5186;59.472;18.048;2023-01-29T07:26:14;1.80;99.90
10282;DHT22;5186;59.472;18.048;2023-01-29T07:28:40;1.80;99.90
10282;DHT22;5186;59.472;18.048;2023-01-29T07:31:07;1.80;99.90
10282;DHT22;5186;59.472;18.048;2023-01-29T07:33:33;1.80;99.90
10282;DHT22;5186;59.472;18.048;2023-01-29T07:35:59;1.80;99.90
10282;DHT22;5186;59.472;18.048;2023-01-29T07:38:24;1.80;99.90
10282;DHT22;5186;59.472;18.048;2023-01-29T07:40:53;1.90;99.90
10282;DHT22;5186;59.472;18.048;2023-01-29T07:43:19;1.90;99.90
10282;DHT22;5186;59.472;18.048;2023-01-29T07:45:45;1.90;99.90
10282;DHT22;5186;59.472;18.048;2023-01-29T07:48:11;1.90;99.90
10282;DHT22;5186;59.472;18.048;2023-01-29T07:50:38;2.00;99.90
10282;DHT22;5186;59.472;18.048;2023-01-29T07:53:04;2.00;99.90
10282;DHT22;5186;59.472;18.048;2023-01-29T07:55:30;2.00;99.90
10282;DHT22;5186;59.472;18.048;2023-01-29T07:58:00;2.00;99.90
10282;DHT22;5186;59.472;18.048;2023-01-29T08:00:27;2.00;99.90
10282;DHT22;5186;59.472;18.048;2023-01-29T08:02:53;2.00;99.90
10282;DHT22;5186;59.472;18.048;2023-01-29T08:05:18;2.00;99.90
10282;DHT22;5186;59.472;18.048;2023-01-29T08:07:44;2.00;99.90
10282;DHT22;5186;59.472;18.048;2023-01-29T08:10:10;2.00;99.90
10282;DHT22;5186;59.472;18.048;2023-01-29T08:12:36;2.00;99.90
10282;DHT22;5186;59.472;18.048;2023-01-29T08:15:02;2.00;99.90
10282;DHT22;5186;59.472;18.048;2023-01-29T08:17:28;2.00;99.90
10282;DHT22;5186;59.472;18.048;2023-01-29T08:19:53;2.00;99.90
10282;DHT22;5186;59.472;18.048;2023-01-29T08:22:19;2.00;99.90
10282;DHT22;5186;59.472;18.048;2023-01-29T08:24:44;2.10;99.90
10282;DHT22;5186;59.472;18.048;2023-01-29T08:27:10;2.10;99.90
10282;DHT22;5186;59.472;18.048;2023-01-29T08:29:36;2.10;99.90
10282;DHT22;5186;59.472;18.048;2023-01-29T08:32:01;2.10;99.90
10282;DHT22;5186;59.472;18.048;2023-01-29T08:34:27;2.20;99.90
10282;DHT22;5186;59.472;18.048;2023-01-29T08:36:52;2.20;99.90
10282;DHT22;5186;59.472;18.048;2023-01-29T08:39:18;2.20;99.90
10282;DHT22;5186;59.472;18.048;2023-01-29T08:41:44;2.20;99.90
10282;DHT22;5186;59.472;18.048;2023-01-29T08:44:10;2.30;99.90
10282;DHT22;5186;59.472;18.048;2023-01-29T08:46:35;2.30;99.90
10282;DHT22;5186;59.472;18.048;2023-01-29T08:49:01;2.30;99.90
10282;DHT22;5186;59.472;18.048;2023-01-29T08:51:27;2.30;99.90
10282;DHT22;5186;59.472;18.048;2023-01-29T08:53:53;2.30;99.90
10282;DHT22;5186;59.472;18.048;2023-01-29T08:56:18;2.40;99.90
10282;DHT22;5186;59.472;18.048;2023-01-29T08:58:44;2.40;99.90
10282;DHT22;5186;59.472;18.048;2023-01-29T09:01:13;2.40;99.90
10282;DHT22;5186;59.472;18.048;2023-01-29T09:03:39;2.40;99.90
10282;DHT22;5186;59.472;18.048;2023-01-29T09:06:12;2.50;99.90
10282;DHT22;5186;59.472;18.048;2023-01-29T09:08:38;2.50;99.90
10282;DHT22;5186;59.472;18.048;2023-01-29T09:11:04;2.50;99.90
10282;DHT22;5186;59.472;18.048;2023-01-29T09:13:30;2.50;99.90
10282;DHT22;5186;59.472;18.048;2023-01-29T09:16:00;2.60;99.90
10282;DHT22;5186;59.472;18.048;2023-01-29T09:18:26;2.60;99.90
10282;DHT22;5186;59.472;18.048;2023-01-29T09:20:52;2.60;99.90
10282;DHT22;5186;59.472;18.048;2023-01-29T09:23:18;2.60;99.90
10282;DHT22;5186;59.472;18.048;2023-01-29T09:25:44;2.60;99.90
10282;DHT22;5186;59.472;18.048;2023-01-29T09:28:10;2.70;99.90
10282;DHT22;5186;59.472;18.048;2023-01-29T09:30:36;2.70;99.90
10282;DHT22;5186;59.472;18.048;2023-01-29T09:33:05;2.70;99.90
10282;DHT22;5186;59.472;18.048;2023-01-29T09:35:32;2.70;99.90
10282;DHT22;5186;59.472;18.048;2023-01-29T09:37:58;2.70;99.90
10282;DHT22;5186;59.472;18.048;2023-01-29T09:40:48;2.70;99.90
10282;DHT22;5186;59.472;18.048;2023-01-29T09:43:30;2.80;99.90
10282;DHT22;5186;59.472;18.048;2023-01-29T09:46:03;2.80;99.90
10282;DHT22;5186;59.472;18.048;2023-01-29T09:48:32;2.80;99.90
10282;DHT22;5186;59.472;18.048;2023-01-29T09:51:02;2.90;99.90
10282;DHT22;5186;59.472;18.048;2023-01-29T09:53:39;2.90;99.90
10282;DHT22;5186;59.472;18.048;2023-01-29T09:58:40;2.90;99.90
10282;DHT22;5186;59.472;18.048;2023-01-29T10:06:33;3.00;99.90
10282;DHT22;5186;59.472;18.048;2023-01-29T10:15:01;3.00;99.90
10282;DHT22;5186;59.472;18.048;2023-01-29T10:17:53;3.00;99.90
10282;DHT22;5186;59.472;18.048;2023-01-29T10:20:35;3.10;99.90
10282;DHT22;5186;59.472;18.048;2023-01-29T10:23:29;3.10;99.90
10282;DHT22;5186;59.472;18.048;2023-01-29T10:25:56;3.10;99.90
10282;DHT22;5186;59.472;18.048;2023-01-29T10:28:39;3.20;99.90
10282;DHT22;5186;59.472;18.048;2023-01-29T10:31:10;3.20;99.90
10282;DHT22;5186;59.472;18.048;2023-01-29T10:33:41;3.20;99.90
10282;DHT22;5186;59.472;18.048;2023-01-29T10:36:13;3.20;99.90
10282;DHT22;5186;59.472;18.048;2023-01-29T10:38:46;3.20;99.90
10282;DHT22;5186;59.472;18.048;2023-01-29T10:41:32;3.20;99.90
10282;DHT22;5186;59.472;18.048;2023-01-29T11:00:26;3.30;99.90
10282;DHT22;5186;59.472;18.048;2023-01-29T11:02:52;3.40;99.90
10282;DHT22;5186;59.472;18.048;2023-01-29T11:05:43;3.30;99.90
10282;DHT22;5186;59.472;18.048;2023-01-29T11:08:13;3.40;99.90
10282;DHT22;5186;59.472;18.048;2023-01-29T11:11:00;3.40;99.90
10282;DHT22;5186;59.472;18.048;2023-01-29T11:13:31;3.50;99.90
10282;DHT22;5186;59.472;18.048;2023-01-29T11:15:58;3.50;99.90
10282;DHT22;5186;59.472;18.048;2023-01-29T11:18:24;3.50;99.90
10282;DHT22;5186;59.472;18.048;2023-01-29T11:21:00;3.50;99.90
10282;DHT22;5186;59.472;18.048;2023-01-29T11:23:29;3.50;99.90
10282;DHT22;5186;59.472;18.048;2023-01-29T11:25:57;3.50;99.90
10282;DHT22;5186;59.472;18.048;2023-01-29T11:28:37;3.50;99.90
10282;DHT22;5186;59.472;18.048;2023-01-29T11:31:13;3.60;99.90
10282;DHT22;5186;59.472;18.048;2023-01-29T11:33:39;3.60;99.90
10282;DHT22;5186;59.472;18.048;2023-01-29T11:36:26;3.60;99.90
10282;DHT22;5186;59.472;18.048;2023-01-29T11:39:23;3.70;99.90
10282;DHT22;5186;59.472;18.048;2023-01-29T11:41:55;3.70;99.90
10282;DHT22;5186;59.472;18.048;2023-01-29T11:47:24;3.70;99.90
10282;DHT22;5186;59.472;18.048;2023-01-29T11:52:33;3.80;99.90
10282;DHT22;5186;59.472;18.048;2023-01-29T11:55:02;3.80;99.90
10282;DHT22;5186;59.472;18.048;2023-01-29T11:57:33;3.80;99.90
10282;DHT22;5186;59.472;18.048;2023-01-29T12:00:03;3.80;99.90
10282;DHT22;5186;59.472;18.048;2023-01-29T12:02:35;3.90;99.90
10282;DHT22;5186;59.472;18.048;2023-01-29T12:05:05;3.90;99.90
10282;DHT22;5186;59.472;18.048;2023-01-29T12:07:31;3.90;99.90
10282;DHT22;5186;59.472;18.048;2023-01-29T12:09:58;4.00;99.90
10282;DHT22;5186;59.472;18.048;2023-01-29T12:15:17;4.00;99.90
10282;DHT22;5186;59.472;18.048;2023-01-29T12:17:53;4.00;99.90
10282;DHT22;5186;59.472;18.048;2023-01-29T12:20:32;4.00;99.90
10282;DHT22;5186;59.472;18.048;2023-01-29T12:23:05;4.10;99.90
10282;DHT22;5186;59.472;18.048;2023-01-29T12:25:40;4.10;99.90
10282;DHT22;5186;59.472;18.048;2023-01-29T12:33:42;4.20;99.90
10282;DHT22;5186;59.472;18.048;2023-01-29T12:36:23;4.20;99.90
10282;DHT22;5186;59.472;18.048;2023-01-29T12:38:50;4.20;99.90
10282;DHT22;5186;59.472;18.048;2023-01-29T12:41:38;4.30;99.90
10282;DHT22;5186;59.472;18.048;2023-01-29T12:44:46;4.30;99.90
10282;DHT22;5186;59.472;18.048;2023-01-29T12:47:42;4.30;99.90
10282;DHT22;5186;59.472;18.048;2023-01-29T12:50:32;4.30;99.90
10282;DHT22;5186;59.472;18.048;2023-01-29T12:53:25;4.40;99.90
10282;DHT22;5186;59.472;18.048;2023-01-29T12:55:58;4.40;99.90
10282;DHT22;5186;59.472;18.048;2023-01-29T13:00:56;4.40;99.90
10282;DHT22;5186;59.472;18.048;2023-01-29T13:03:27;4.50;99.90
10282;DHT22;5186;59.472;18.048;2023-01-29T13:06:01;4.50;99.90
10282;DHT22;5186;59.472;18.048;2023-01-29T13:08:42;4.50;99.90
10282;DHT22;5186;59.472;18.048;2023-01-29T13:11:14;4.60;99.90
10282;DHT22;5186;59.472;18.048;2023-01-29T13:14:12;4.60;99.90
10282;DHT22;5186;59.472;18.048;2023-01-29T13:16:42;4.60;99.90
10282;DHT22;5186;59.472;18.048;2023-01-29T13:19:28;4.60;99.90
10282;DHT22;5186;59.472;18.048;2023-01-29T13:21:59;4.60;99.90
10282;DHT22;5186;59.472;18.048;2023-01-29T13:24:39;4.60;99.90
10282;DHT22;5186;59.472;18.048;2023-01-29T13:27:05;4.70;99.90
10282;DHT22;5186;59.472;18.048;2023-01-29T13:29:32;4.70;99.90
10282;DHT22;5186;59.472;18.048;2023-01-29T13:32:00;4.70;99.90
10282;DHT22;5186;59.472;18.048;2023-01-29T13:34:42;4.70;99.90
10282;DHT22;5186;59.472;18.048;2023-01-29T13:39:50;4.70;99.90
10282;DHT22;5186;59.472;18.048;2023-01-29T13:42:32;4.70;99.90
10282;DHT22;5186;59.472;18.048;2023-01-29T13:45:02;4.80;99.90
10282;DHT22;5186;59.472;18.048;2023-01-29T13:47:31;4.80;99.90
10282;DHT22;5186;59.472;18.048;2023-01-29T14:02:46;4.80;99.90
10282;DHT22;5186;59.472;18.048;2023-01-29T14:07:58;4.90;99.90
10282;DHT22;5186;59.472;18.048;2023-01-29T14:10:24;4.90;99.90
10282;DHT22;5186;59.472;18.048;2023-01-29T14:12:52;4.90;99.90
10282;DHT22;5186;59.472;18.048;2023-01-29T14:15:26;4.90;99.90
10282;DHT22;5186;59.472;18.048;2023-01-29T14:20:38;4.90;99.90
10282;DHT22;5186;59.472;18.048;2023-01-29T14:23:06;5.00;99.90
10282;DHT22;5186;59.472;18.048;2023-01-29T14:25:41;5.00;99.90
10282;DHT22;5186;59.472;18.048;2023-01-29T14:28:14;5.00;99.90
10282;DHT22;5186;59.472;18.048;2023-01-29T14:30:45;5.00;99.90
10282;DHT22;5186;59.472;18.048;2023-01-29T14:33:37;5.10;99.90
10282;DHT22;5186;59.472;18.048;2023-01-29T14:36:13;5.00;99.90
10282;DHT22;5186;59.472;18.048;2023-01-29T14:38:45;5.00;99.90
10282;DHT22;5186;59.472;18.048;2023-01-29T14:41:28;5.10;99.90
10282;DHT22;5186;59.472;18.048;2023-01-29T14:46:58;5.10;99.90
10282;DHT22;5186;59.472;18.048;2023-01-29T14:49:52;5.10;99.90
10282;DHT22;5186;59.472;18.048;2023-01-29T14:52:22;5.10;99.90
10282;DHT22;5186;59.472;18.048;2023-01-29T14:54:49;5.20;99.90
10282;DHT22;5186;59.472;18.048;2023-01-29T14:57:17;5.20;99.90
10282;DHT22;5186;59.472;18.048;2023-01-29T15:00:16;5.20;99.90
10282;DHT22;5186;59.472;18.048;2023-01-29T15:02:45;5.20;99.90
10282;DHT22;5186;59.472;18.048;2023-01-29T15:05:18;5.20;99.90
10282;DHT22;5186;59.472;18.048;2023-01-29T15:08:05;5.20;99.90
10282;DHT22;5186;59.472;18.048;2023-01-29T15:10:41;5.20;99.90
10282;DHT22;5186;59.472;18.048;2023-01-29T15:13:49;5.20;99.90
10282;DHT22;5186;59.472;18.048;2023-01-29T15:16:22;5.20;99.90
10282;DHT22;5186;59.472;18.048;2023-01-29T15:18:53;5.30;99.90
10282;DHT22;5186;59.472;18.048;2023-01-29T15:21:20;5.20;99.90
10282;DHT22;5186;59.472;18.048;2023-01-29T15:23:47;5.30;99.90
10282;DHT22;5186;59.472;18.048;2023-01-29T15:26:32;5.30;99.90
10282;DHT22;5186;59.472;18.048;2023-01-29T15:29:00;5.30;99.90
10282;DHT22;5186;59.472;18.048;2023-01-29T15:31:27;5.40;99.90
10282;DHT22;5186;59.472;18.048;2023-01-29T15:33:54;5.40;99.90
10282;DHT22;5186;59.472;18.048;2023-01-29T15:36:29;5.40;99.90
10282;DHT22;5186;59.472;18.048;2023-01-29T15:41:36;5.40;99.90
10282;DHT22;5186;59.472;18.048;2023-01-29T15:44:02;5.40;99.90
10282;DHT22;5186;59.472;18.048;2023-01-29T15:46:33;5.40;99.90
10282;DHT22;5186;59.472;18.048;2023-01-29T15:49:05;5.40;99.90
10282;DHT22;5186;59.472;18.048;2023-01-29T15:51:32;5.40;99.90
10282;DHT22;5186;59.472;18.048;2023-01-29T15:54:08;5.40;99.90
10282;DHT22;5186;59.472;18.048;2023-01-29T15:56:36;5.50;99.90
10282;DHT22;5186;59.472;18.048;2023-01-29T15:59:05;5.50;99.90
10282;DHT22;5186;59.472;18.048;2023-01-29T16:01:31;5.50;99.90
10282;DHT22;5186;59.472;18.048;2023-01-29T16:03:58;5.50;99.90
10282;DHT22;5186;59.472;18.048;2023-01-29T16:06:34;5.50;99.90
10282;DHT22;5186;59.472;18.048;2023-01-29T16:09:01;5.50;99.90
10282;DHT22;5186;59.472;18.048;2023-01-29T16:11:27;5.60;99.90
10282;DHT22;5186;59.472;18.048;2023-01-29T16:13:53;5.60;99.90
10282;DHT22;5186;59.472;18.048;2023-01-29T16:16:23;5.60;99.90
10282;DHT22;5186;59.472;18.048;2023-01-29T16:18:49;5.60;99.90
10282;DHT22;5186;59.472;18.048;2023-01-29T16:23:57;5.70;99.90
10282;DHT22;5186;59.472;18.048;2023-01-29T16:26:47;5.70;99.90
10282;DHT22;5186;59.472;18.048;2023-01-29T16:29:14;5.60;99.90
10282;DHT22;5186;59.472;18.048;2023-01-29T16:31:42;5.70;99.90
10282;DHT22;5186;59.472;18.048;2023-01-29T16:36:48;5.70;99.90
10282;DHT22;5186;59.472;18.048;2023-01-29T16:39:23;5.70;99.90
10282;DHT22;5186;59.472;18.048;2023-01-29T16:44:36;5.80;99.90
10282;DHT22;5186;59.472;18.048;2023-01-29T16:47:13;5.80;99.90
10282;DHT22;5186;59.472;18.048;2023-01-29T16:52:31;5.80;99.90
10282;DHT22;5186;59.472;18.048;2023-01-29T16:55:13;5.80;99.90
10282;DHT22;5186;59.472;18.048;2023-01-29T16:57:40;5.80;99.90
10282;DHT22;5186;59.472;18.048;2023-01-29T17:00:16;5.80;99.90
10282;DHT22;5186;59.472;18.048;2023-01-29T17:02:42;5.80;99.90
10282;DHT22;5186;59.472;18.048;2023-01-29T17:05:23;5.80;99.90
10282;DHT22;5186;59.472;18.048;2023-01-29T17:07:50;5.80;99.90
10282;DHT22;5186;59.472;18.048;2023-01-29T17:10:18;5.80;99.90
10282;DHT22;5186;59.472;18.048;2023-01-29T17:13:07;5.80;99.90
10282;DHT22;5186;59.472;18.048;2023-01-29T17:15:43;5.90;99.90
10282;DHT22;5186;59.472;18.048;2023-01-29T17:18:23;5.80;99.90
10282;DHT22;5186;59.472;18.048;2023-01-29T17:20:49;5.90;99.90
10282;DHT22;5186;59.472;18.048;2023-01-29T17:23:17;5.80;99.90
10282;DHT22;5186;59.472;18.048;2023-01-29T17:25:43;5.80;99.90
10282;DHT22;5186;59.472;18.048;2023-01-29T17:28:12;5.90;99.90
10282;DHT22;5186;59.472;18.048;2023-01-29T17:30:38;5.90;99.90
10282;DHT22;5186;59.472;18.048;2023-01-29T17:33:15;5.90;99.90
10282;DHT22;5186;59.472;18.048;2023-01-29T17:35:42;5.90;99.90
10282;DHT22;5186;59.472;18.048;2023-01-29T17:38:10;5.80;99.90
10282;DHT22;5186;59.472;18.048;2023-01-29T17:40:50;5.90;99.90
10282;DHT22;5186;59.472;18.048;2023-01-29T17:43:17;5.90;99.90
10282;DHT22;5186;59.472;18.048;2023-01-29T17:45:42;5.90;99.90
10282;DHT22;5186;59.472;18.048;2023-01-29T17:48:20;5.90;99.90
10282;DHT22;5186;59.472;18.048;2023-01-29T17:50:48;5.90;99.90
10282;DHT22;5186;59.472;18.048;2023-01-29T17:53:15;5.90;99.90
10282;DHT22;5186;59.472;18.048;2023-01-29T17:55:41;5.90;99.90
10282;DHT22;5186;59.472;18.048;2023-01-29T17:58:26;5.90;99.90
10282;DHT22;5186;59.472;18.048;2023-01-29T18:00:53;5.90;99.90
10282;DHT22;5186;59.472;18.048;2023-01-29T18:03:19;5.90;99.90
10282;DHT22;5186;59.472;18.048;2023-01-29T18:05:46;5.90;99.90
10282;DHT22;5186;59.472;18.048;2023-01-29T18:08:32;5.90;99.90
10282;DHT22;5186;59.472;18.048;2023-01-29T18:10:59;6.00;99.90
10282;DHT22;5186;59.472;18.048;2023-01-29T18:13:24;6.00;99.90
10282;DHT22;5186;59.472;18.048;2023-01-29T18:15:50;6.00;99.90
10282;DHT22;5186;59.472;18.048;2023-01-29T18:18:21;5.90;99.90
10282;DHT22;5186;59.472;18.048;2023-01-29T18:20:46;6.00;99.90
10282;DHT22;5186;59.472;18.048;2023-01-29T18:23:13;6.00;99.90